Time;durP1;ratioP1;P1;durP2;ratioP2;P2;SDS_P1;SDS_P2;PMS_P1;PMS_P2;Temp;Humidity;BMP_temperature;BMP_pressure;BME280_temperature;BME280_humidity;BME280_pressure;Samples;Min_cycle;Max_cycle;Signal;HPM_P1;HPM_P2
2022/09/04 00:00:12;;;;;;;6.55;4.30;;;;;;;;;;5021166;28;20050;-83
2022/09/04 00:02:51;;;;;;;7.63;4.53;;;;;;;;;;5005296;28;20192;-84
2022/09/04 00:05:20;;;;;;;10.32;4.70;;;;;;;;;;4985031;28;20057;-80
2022/09/04 00:07:53;;;;;;;9.18;4.60;;;;;;;;;;5001623;28;20078;-82
2022/09/04 00:10:22;;;;;;;11.50;4.45;;;;;;;;;;5005218;28;20046;-84
2022/09/04 00:12:52;;;;;;;8.43;4.40;;;;;;;;;;5005064;28;20055;-81
2022/09/04 00:15:26;;;;;;;7.63;4.22;;;;;;;;;;5006938;28;20061;-81
2022/09/04 00:17:58;;;;;;;8.40;4.90;;;;;;;;;;5006790;28;20057;-83
2022/09/04 00:20:25;;;;;;;7.95;4.90;;;;;;;;;;5006112;28;20046;-83
2022/09/04 00:22:57;;;;;;;13.85;4.63;;;;;;;;;;5008678;28;20030;-85
2022/09/04 00:25:35;;;;;;;7.25;4.40;;;;;;;;;;5013487;28;20034;-84
2022/09/04 00:28:10;;;;;;;7.57;4.45;;;;;;;;;;5004985;28;20050;-84
2022/09/04 00:30:40;;;;;;;6.80;4.20;;;;;;;;;;5005150;28;20089;-84
2022/09/04 00:33:25;;;;;;;7.88;4.53;;;;;;;;;;4988381;28;20046;-82
2022/09/04 00:35:54;;;;;;;10.10;4.30;;;;;;;;;;4988733;28;20074;-85
2022/09/04 00:38:40;;;;;;;8.73;5.35;;;;;;;;;;5004930;28;20373;-84
2022/09/04 00:41:06;;;;;;;9.15;5.00;;;;;;;;;;5005613;28;20054;-82
2022/09/04 00:43:55;;;;;;;7.38;4.68;;;;;;;;;;5011562;28;20086;-85
2022/09/04 00:46:38;;;;;;;10.35;6.15;;;;;;;;;;5024536;28;20049;-82
2022/09/04 00:49:23;;;;;;;10.23;4.82;;;;;;;;;;5006832;28;20053;-85
2022/09/04 00:52:01;;;;;;;10.93;5.03;;;;;;;;;;5025895;28;20058;-81
2022/09/04 00:55:07;;;;;;;10.25;4.32;;;;;;;;;;5025825;28;20293;-82
2022/09/04 00:57:56;;;;;;;7.90;4.95;;;;;;;;;;4984060;28;20059;-82
2022/09/04 01:00:25;;;;;;;7.35;4.65;;;;;;;;;;4985282;28;20057;-81
2022/09/04 01:02:52;;;;;;;7.20;5.13;;;;;;;;;;5010253;28;20054;-84
2022/09/04 01:05:21;;;;;;;10.35;5.38;;;;;;;;;;5023761;28;20054;-82
2022/09/04 01:08:06;;;;;;;7.35;5.45;;;;;;;;;;5025648;28;20053;-81
2022/09/04 01:10:38;;;;;;;8.32;4.70;;;;;;;;;;5028366;28;20105;-81
2022/09/04 01:13:11;;;;;;;10.10;5.10;;;;;;;;;;5028506;28;20061;-81
2022/09/04 01:15:51;;;;;;;8.68;5.03;;;;;;;;;;5034360;28;20430;-85
2022/09/04 01:18:27;;;;;;;12.68;7.05;;;;;;;;;;5017420;28;20030;-84
2022/09/04 01:20:56;;;;;;;8.85;5.70;;;;;;;;;;5030244;28;20046;-82
2022/09/04 01:23:41;;;;;;;7.57;4.50;;;;;;;;;;5009695;28;20053;-81
2022/09/04 01:26:12;;;;;;;10.05;5.05;;;;;;;;;;5027543;28;20050;-84
2022/09/04 01:28:41;;;;;;;8.10;4.82;;;;;;;;;;5029021;28;20104;-81
2022/09/04 01:31:08;;;;;;;10.52;4.43;;;;;;;;;;5028831;28;20069;-85
2022/09/04 01:33:59;;;;;;;9.75;4.88;;;;;;;;;;5028486;28;20111;-80
2022/09/04 01:36:44;;;;;;;8.77;4.43;;;;;;;;;;5028279;28;20104;-84
2022/09/04 01:39:10;;;;;;;5.65;4.28;;;;;;;;;;5029039;28;20438;-85
2022/09/04 01:41:45;;;;;;;10.48;4.60;;;;;;;;;;5029444;28;20050;-80
2022/09/04 01:44:11;;;;;;;8.48;4.45;;;;;;;;;;5007311;28;20561;-80
2022/09/04 01:46:38;;;;;;;12.60;4.40;;;;;;;;;;5024829;28;20046;-80
2022/09/04 01:49:09;;;;;;;6.55;4.38;;;;;;;;;;5024302;28;20054;-80
2022/09/04 01:51:39;;;;;;;7.97;4.45;;;;;;;;;;5022370;28;20096;-81
2022/09/04 01:54:22;;;;;;;7.47;4.97;;;;;;;;;;5021692;28;20100;-79
2022/09/04 01:56:55;;;;;;;12.40;4.65;;;;;;;;;;5015603;28;20061;-80
2022/09/04 01:59:24;;;;;;;8.13;4.35;;;;;;;;;;5019531;28;20069;-80
2022/09/04 02:01:59;;;;;;;8.48;4.30;;;;;;;;;;5019392;28;20093;-81
2022/09/04 02:04:51;;;;;;;6.85;4.20;;;;;;;;;;5016384;28;20451;-82
2022/09/04 02:07:17;;;;;;;6.03;4.10;;;;;;;;;;5015509;28;20104;-80
2022/09/04 02:10:00;;;;;;;7.90;4.45;;;;;;;;;;5015309;28;20076;-79
2022/09/04 02:12:36;;;;;;;7.38;4.20;;;;;;;;;;5014896;28;20164;-81
2022/09/04 02:15:06;;;;;;;6.47;4.30;;;;;;;;;;4996755;28;20389;-78
2022/09/04 02:17:56;;;;;;;10.68;4.53;;;;;;;;;;5002040;28;20069;-81
2022/09/04 02:20:27;;;;;;;10.65;4.00;;;;;;;;;;5020256;28;20061;-81
2022/09/04 02:23:02;;;;;;;9.68;4.43;;;;;;;;;;5028647;28;20049;-83
2022/09/04 02:25:28;;;;;;;;;;;;;;;;;;5026451;28;20096;-81
2022/09/04 02:27:55;;;;;;;;;;;;;;;;;;5026907;28;19935;-82
2022/09/04 02:30:21;;;;;;;;;;;;;;;;;;5033865;28;19922;-83
2022/09/04 02:32:48;;;;;;;6.78;4.35;;;;;;;;;;5012832;28;20001;-83
2022/09/04 02:35:30;;;;;;;6.35;4.20;;;;;;;;;;5027220;28;20065;-82
2022/09/04 02:38:15;;;;;;;8.88;4.40;;;;;;;;;;5008808;28;20465;-84
2022/09/04 02:40:58;;;;;;;7.47;4.60;;;;;;;;;;5026383;28;20050;-85
2022/09/04 02:43:40;;;;;;;6.75;4.18;;;;;;;;;;5015258;28;20058;-80
2022/09/04 02:46:19;;;;;;;5.78;4.20;;;;;;;;;;5025423;28;20057;-80
2022/09/04 02:48:46;;;;;;;7.68;4.25;;;;;;;;;;5027562;28;20124;-81
2022/09/04 02:51:27;;;;;;;10.60;4.63;;;;;;;;;;5027015;28;20049;-83
2022/09/04 02:54:13;;;;;;;6.28;4.40;;;;;;;;;;5027437;28;20418;-81
2022/09/04 02:56:55;;;;;;;6.38;3.80;;;;;;;;;;5027643;28;20060;-83
2022/09/04 02:59:22;;;;;;;5.95;4.03;;;;;;;;;;5020637;28;20053;-82
2022/09/04 03:02:00;;;;;;;7.53;4.43;;;;;;;;;;5007699;28;20042;-81
2022/09/04 03:04:36;;;;;;;9.73;4.40;;;;;;;;;;5004595;28;20030;-83
2022/09/04 03:07:02;;;;;;;;;;;;;;;;;;5006530;28;20062;-84
2022/09/04 03:09:28;;;;;;;;;;;;;;;;;;5004940;28;19925;-82
2022/09/04 03:12:14;;;;;;;8.07;4.15;;;;;;;;;;5002886;28;19949;-83
2022/09/04 03:14:47;;;;;;;7.50;4.22;;;;;;;;;;5005479;28;20085;-83
2022/09/04 03:17:18;;;;;;;11.52;4.10;;;;;;;;;;5004466;28;20130;-81
2022/09/04 03:20:07;;;;;;;5.93;4.22;;;;;;;;;;5005953;28;20046;-84
2022/09/04 03:22:49;;;;;;;6.85;4.18;;;;;;;;;;5006517;28;20102;-84
2022/09/04 03:25:34;;;;;;;5.95;4.07;;;;;;;;;;5007970;28;20097;-83
2022/09/04 03:28:01;;;;;;;8.30;4.30;;;;;;;;;;4990717;28;20061;-82
2022/09/04 03:30:30;;;;;;;6.15;3.88;;;;;;;;;;5006344;28;20331;-83
2022/09/04 03:33:11;;;;;;;6.97;4.30;;;;;;;;;;5007351;28;20061;-82
2022/09/04 03:36:01;;;;;;;6.40;3.95;;;;;;;;;;5007533;28;20034;-84
2022/09/04 03:38:47;;;;;;;8.15;4.35;;;;;;;;;;4989278;28;20077;-81
2022/09/04 03:41:25;;;;;;;8.67;4.50;;;;;;;;;;5003980;28;20085;-81
2022/09/04 03:44:10;;;;;;;7.53;3.90;;;;;;;;;;5012314;28;20100;-82
2022/09/04 03:46:40;;;;;;;7.20;4.00;;;;;;;;;;4986331;28;20066;-82
2022/09/04 03:49:13;;;;;;;8.85;4.15;;;;;;;;;;4966922;28;20057;-82
2022/09/04 03:52:16;;;;;;;6.38;4.20;;;;;;;;;;4967056;28;20082;-79
2022/09/04 03:55:08;;;;;;;6.72;4.00;;;;;;;;;;4962449;29;20481;-82
2022/09/04 03:57:41;;;;;;;6.07;4.22;;;;;;;;;;4983502;28;20059;-80
2022/09/04 04:00:14;;;;;;;7.82;4.07;;;;;;;;;;4984010;28;20046;-80
2022/09/04 04:02:40;;;;;;;6.68;4.05;;;;;;;;;;4966377;28;20063;-83
2022/09/04 04:05:09;;;;;;;12.30;4.43;;;;;;;;;;4985077;28;20050;-81
2022/09/04 04:07:39;;;;;;;7.32;4.75;;;;;;;;;;4965700;28;20085;-81
2022/09/04 04:10:14;;;;;;;8.65;4.13;;;;;;;;;;4980844;28;20383;-82
2022/09/04 04:12:50;;;;;;;6.68;4.28;;;;;;;;;;4991643;28;20092;-83
2022/09/04 04:15:43;;;;;;;9.02;4.47;;;;;;;;;;5000393;28;20081;-80
2022/09/04 04:18:15;;;;;;;7.78;4.57;;;;;;;;;;4999288;28;20053;-80
2022/09/04 04:20:49;;;;;;;7.13;4.20;;;;;;;;;;5001717;28;20057;-81
2022/09/04 04:23:35;;;;;;;5.43;4.00;;;;;;;;;;4998960;28;20053;-81
2022/09/04 04:26:20;;;;;;;10.02;4.38;;;;;;;;;;5001086;28;20042;-80
2022/09/04 04:29:02;;;;;;;6.17;4.10;;;;;;;;;;5001716;28;20058;-78
2022/09/04 04:31:43;;;;;;;7.50;4.30;;;;;;;;;;5002494;28;20050;-82
2022/09/04 04:34:17;;;;;;;7.28;4.65;;;;;;;;;;4999766;28;20049;-80
2022/09/04 04:36:44;;;;;;;9.93;4.40;;;;;;;;;;5011677;28;20050;-82
2022/09/04 04:39:14;;;;;;;9.85;4.43;;;;;;;;;;4990670;28;20145;-81
2022/09/04 04:42:04;;;;;;;7.93;4.53;;;;;;;;;;4996233;28;20054;-80
2022/09/04 04:45:48;;;;;;;7.63;4.28;;;;;;;;;;4995204;28;20050;-80
2022/09/04 04:47:22;;;;;;;6.80;4.32;;;;;;;;;;5016573;28;20084;-80
2022/09/04 04:49:57;;;;;;;9.25;4.53;;;;;;;;;;5006148;28;20226;-82
2022/09/04 04:52:24;;;;;;;;;;;;;;;;;;5021829;28;20042;-82
2022/09/04 04:54:50;;;;;;;;;;;;;;;;;;5011705;28;19909;-84
2022/09/04 04:57:16;;;;;;;;;;;;;;;;;;5012227;28;19922;-83
2022/09/04 04:59:54;;;;;;;10.85;4.38;;;;;;;;;;5006845;28;19979;-81
2022/09/04 05:02:21;;;;;;;12.25;4.20;;;;;;;;;;5007289;28;20050;-80
2022/09/04 05:05:06;;;;;;;8.18;4.50;;;;;;;;;;5007574;28;20046;-82
2022/09/04 05:07:40;;;;;;;9.13;4.50;;;;;;;;;;5009777;28;20051;-80
2022/09/04 05:10:07;;;;;;;7.15;4.75;;;;;;;;;;5004980;28;20186;-82
2022/09/04 05:12:49;;;;;;;7.15;4.20;;;;;;;;;;5007392;28;20058;-80
2022/09/04 05:15:35;;;;;;;8.43;4.05;;;;;;;;;;5008405;28;20306;-82
2022/09/04 05:18:32;;;;;;;7.70;4.57;;;;;;;;;;5005819;28;20145;-83
2022/09/04 05:21:06;;;;;;;5.43;4.00;;;;;;;;;;5007526;28;20499;-83
2022/09/04 05:23:35;;;;;;;6.65;4.45;;;;;;;;;;5009668;28;20053;-81
2022/09/04 05:26:05;;;;;;;9.35;4.80;;;;;;;;;;5010140;28;20050;-81
2022/09/04 05:28:31;;;;;;;7.18;4.40;;;;;;;;;;5003655;28;20034;-82
2022/09/04 05:31:04;;;;;;;8.50;4.53;;;;;;;;;;5001244;28;20043;-82
2022/09/04 05:33:31;;;;;;;6.85;4.22;;;;;;;;;;5001747;28;20051;-83
2022/09/04 05:36:01;;;;;;;6.20;4.50;;;;;;;;;;5005408;28;20273;-81
2022/09/04 05:38:42;;;;;;;9.35;4.60;;;;;;;;;;4989667;28;20041;-81
2022/09/04 05:41:29;;;;;;;7.20;4.95;;;;;;;;;;4985609;28;20051;-81
2022/09/04 05:44:04;;;;;;;7.30;4.57;;;;;;;;;;4997533;28;20061;-82
2022/09/04 05:46:37;;;;;;;10.68;5.05;;;;;;;;;;5003936;28;20114;-83
2022/09/04 05:49:18;;;;;;;9.50;4.75;;;;;;;;;;5003646;28;20422;-82
2022/09/04 05:51:54;;;;;;;9.50;4.45;;;;;;;;;;5003049;28;20117;-83
2022/09/04 05:54:23;;;;;;;8.38;4.57;;;;;;;;;;5002733;28;20054;-82
2022/09/04 05:56:50;;;;;;;6.68;4.75;;;;;;;;;;5001933;28;20081;-84
2022/09/04 05:59:19;;;;;;;9.48;4.90;;;;;;;;;;5003642;28;20109;-82
2022/09/04 06:01:49;;;;;;;6.95;4.70;;;;;;;;;;5004827;28;20090;-82
2022/09/04 06:04:23;;;;;;;9.70;5.13;;;;;;;;;;5004462;28;20050;-82
2022/09/04 06:06:57;;;;;;;8.38;4.93;;;;;;;;;;5005793;28;20051;-83
2022/09/04 06:09:33;;;;;;;8.23;4.38;;;;;;;;;;5004078;28;20065;-84
2022/09/04 06:12:02;;;;;;;7.75;4.68;;;;;;;;;;5005255;28;20120;-82
2022/09/04 06:14:29;;;;;;;6.75;4.35;;;;;;;;;;5002237;28;20499;-84
2022/09/04 06:16:58;;;;;;;8.88;4.70;;;;;;;;;;5005644;28;20054;-82
2022/09/04 06:19:42;;;;;;;8.02;4.40;;;;;;;;;;5003268;28;20157;-83
2022/09/04 06:22:18;;;;;;;7.30;3.92;;;;;;;;;;5004369;28;20073;-84
2022/09/04 06:24:44;;;;;;;;;;;;;;;;;;4992915;28;20053;-84
2022/09/04 06:27:10;;;;;;;;;;;;;;;;;;4986305;28;19966;-85
2022/09/04 06:29:37;;;;;;;;;;;;;;;;;;4984183;28;19949;-82
2022/09/04 06:32:13;;;;;;;6.85;4.30;;;;;;;;;;4996903;28;19933;-81
2022/09/04 06:34:58;;;;;;;9.07;4.60;;;;;;;;;;5005019;28;20084;-83
2022/09/04 06:37:35;;;;;;;12.00;5.20;;;;;;;;;;4994340;28;20128;-82
2022/09/04 06:40:09;;;;;;;9.60;4.65;;;;;;;;;;5002401;28;20054;-83
2022/09/04 06:42:39;;;;;;;7.88;4.20;;;;;;;;;;5004353;28;20053;-81
2022/09/04 06:45:08;;;;;;;6.55;4.32;;;;;;;;;;5007968;28;20065;-85
2022/09/04 06:47:47;;;;;;;9.60;4.20;;;;;;;;;;5007473;28;20054;-84
2022/09/04 06:50:29;;;;;;;8.55;4.32;;;;;;;;;;5003033;28;20047;-85
2022/09/04 06:53:01;;;;;;;9.20;4.65;;;;;;;;;;5004072;28;20174;-84
2022/09/04 06:55:36;;;;;;;7.07;4.43;;;;;;;;;;4985731;28;20110;-84
2022/09/04 06:58:04;;;;;;;11.07;4.95;;;;;;;;;;5001361;28;20090;-84
2022/09/04 07:00:41;;;;;;;9.65;4.90;;;;;;;;;;4984642;28;20050;-81
2022/09/04 07:03:23;;;;;;;8.27;4.95;;;;;;;;;;5000845;28;20042;-82
2022/09/04 07:05:55;;;;;;;8.77;4.80;;;;;;;;;;5000022;28;20054;-82
2022/09/04 07:08:28;;;;;;;10.98;4.65;;;;;;;;;;5001368;28;20134;-82
2022/09/04 07:11:10;;;;;;;8.18;5.18;;;;;;;;;;5001498;28;20046;-82
2022/09/04 07:13:36;;;;;;;8.73;4.95;;;;;;;;;;4984251;28;20050;-83
2022/09/04 07:16:29;;;;;;;7.43;4.72;;;;;;;;;;5001112;28;20058;-82
2022/09/04 07:18:56;;;;;;;8.85;4.47;;;;;;;;;;4987984;28;20495;-77
2022/09/04 07:21:33;;;;;;;7.53;3.67;;;;;;;;;;4990269;28;20050;-76
2022/09/04 07:24:22;;;;;;;6.35;4.07;;;;;;;;;;4990208;28;20081;-76
2022/09/04 07:26:49;;;;;;;7.88;4.03;;;;;;;;;;4966592;28;20133;-77
2022/09/04 07:29:35;;;;;;;7.57;4.38;;;;;;;;;;4984046;28;20398;-76
2022/09/04 07:32:20;;;;;;;6.63;4.10;;;;;;;;;;4986598;28;20054;-77
2022/09/04 07:34:58;;;;;;;7.43;4.03;;;;;;;;;;4980001;28;20128;-75
2022/09/04 07:37:45;;;;;;;6.70;3.60;;;;;;;;;;4987666;28;20101;-75
2022/09/04 07:40:12;;;;;;;10.55;4.00;;;;;;;;;;4993448;28;20574;-78
2022/09/04 07:42:42;;;;;;;5.80;3.50;;;;;;;;;;4998094;28;20107;-78
2022/09/04 07:45:15;;;;;;;6.70;3.60;;;;;;;;;;4993306;28;20082;-77
2022/09/04 07:47:44;;;;;;;8.05;3.63;;;;;;;;;;4999802;28;20047;-78
2022/09/04 07:50:20;;;;;;;8.93;3.60;;;;;;;;;;4981744;28;20065;-77
2022/09/04 07:53:06;;;;;;;8.02;4.00;;;;;;;;;;4996405;28;20112;-77
2022/09/04 07:55:36;;;;;;;7.03;3.83;;;;;;;;;;5000146;28;20116;-77
2022/09/04 07:58:39;;;;;;;6.25;3.63;;;;;;;;;;4997776;28;20058;-79
2022/09/04 08:01:15;;;;;;;8.93;3.58;;;;;;;;;;4940298;29;20055;-78
2022/09/04 08:04:08;;;;;;;11.55;3.40;;;;;;;;;;4963545;28;20038;-78
2022/09/04 08:06:37;;;;;;;18.08;3.50;;;;;;;;;;4984765;28;20034;-78
2022/09/04 08:09:04;;;;;;;6.70;3.13;;;;;;;;;;5008943;28;20026;-79
2022/09/04 08:11:36;;;;;;;5.07;2.30;;;;;;;;;;5008251;28;20042;-79
2022/09/04 08:14:13;;;;;;;4.63;2.25;;;;;;;;;;5010303;28;20050;-79
2022/09/04 08:16:46;;;;;;;4.68;2.95;;;;;;;;;;5008517;28;20026;-78
2022/09/04 08:19:14;;;;;;;3.78;2.35;;;;;;;;;;5003423;28;20145;-78
2022/09/04 08:21:42;;;;;;;5.72;2.40;;;;;;;;;;4992744;28;20078;-79
2022/09/04 08:24:37;;;;;;;3.42;2.45;;;;;;;;;;4996404;28;20057;-76
2022/09/04 08:27:08;;;;;;;4.78;3.10;;;;;;;;;;4995420;28;20077;-78
2022/09/04 08:29:44;;;;;;;5.80;2.90;;;;;;;;;;5005578;28;20070;-79
2022/09/04 08:32:16;;;;;;;4.68;3.15;;;;;;;;;;5008867;28;20040;-79
2022/09/04 08:34:50;;;;;;;6.63;3.00;;;;;;;;;;5004710;28;20077;-78
2022/09/04 08:37:28;;;;;;;5.53;2.67;;;;;;;;;;4997631;28;20057;-79
2022/09/04 08:39:54;;;;;;;6.55;2.55;;;;;;;;;;4981427;28;20054;-79
2022/09/04 08:42:21;;;;;;;9.18;2.67;;;;;;;;;;4990391;28;20066;-81
2022/09/04 08:44:47;;;;;;;5.70;2.85;;;;;;;;;;4988676;28;20077;-81
2022/09/04 08:47:27;;;;;;;5.00;2.75;;;;;;;;;;4991285;28;20081;-81
2022/09/04 08:50:02;;;;;;;9.18;2.60;;;;;;;;;;4990812;28;20169;-80
2022/09/04 08:52:44;;;;;;;5.75;2.47;;;;;;;;;;4996781;28;20549;-80
2022/09/04 08:55:29;;;;;;;5.80;2.58;;;;;;;;;;4987044;28;20050;-81
2022/09/04 08:58:04;;;;;;;6.32;2.53;;;;;;;;;;4987994;28;20054;-81
2022/09/04 09:00:50;;;;;;;4.82;2.70;;;;;;;;;;4986090;28;20554;-81
2022/09/04 09:03:16;;;;;;;5.75;2.50;;;;;;;;;;4967382;28;20492;-79
2022/09/04 09:05:46;;;;;;;4.07;2.58;;;;;;;;;;4986346;28;20098;-80
2022/09/04 09:08:12;;;;;;;7.93;2.30;;;;;;;;;;4985015;28;20133;-81
2022/09/04 09:10:42;;;;;;;5.13;2.45;;;;;;;;;;4971252;28;20137;-81
2022/09/04 09:13:30;;;;;;;5.18;2.60;;;;;;;;;;4971746;28;20129;-80
2022/09/04 09:15:56;;;;;;;6.00;2.30;;;;;;;;;;4992682;28;20530;-80
2022/09/04 09:18:25;;;;;;;4.35;2.72;;;;;;;;;;4990227;28;20462;-81
2022/09/04 09:21:04;;;;;;;6.15;2.42;;;;;;;;;;4986783;28;20078;-82
2022/09/04 09:23:36;;;;;;;7.63;3.25;;;;;;;;;;4985424;28;20097;-81
2022/09/04 09:26:22;;;;;;;4.97;2.72;;;;;;;;;;4987861;28;20665;-82
2022/09/04 09:29:07;;;;;;;5.03;2.40;;;;;;;;;;4986966;28;20094;-81
2022/09/04 09:32:00;;;;;;;7.15;2.65;;;;;;;;;;4990581;28;20470;-81
2022/09/04 09:34:29;;;;;;;4.93;2.63;;;;;;;;;;4991894;28;20120;-81
2022/09/04 09:37:07;;;;;;;4.68;2.40;;;;;;;;;;4985654;28;20134;-80
2022/09/04 09:39:37;;;;;;;6.88;2.45;;;;;;;;;;4987472;28;20109;-80
2022/09/04 09:42:22;;;;;;;4.35;2.53;;;;;;;;;;4991477;28;20153;-81
2022/09/04 09:45:12;;;;;;;6.72;2.90;;;;;;;;;;4990356;28;20055;-81
2022/09/04 09:47:58;;;;;;;5.30;2.55;;;;;;;;;;4974561;28;20046;-81
2022/09/04 09:50:43;;;;;;;5.35;2.58;;;;;;;;;;4995100;28;20054;-82
2022/09/04 09:53:29;;;;;;;6.20;2.63;;;;;;;;;;4997542;28;20050;-80
2022/09/04 09:56:13;;;;;;;10.93;2.03;;;;;;;;;;4996229;28;20054;-80
2022/09/04 09:58:58;;;;;;;5.00;2.22;;;;;;;;;;4997407;28;20436;-81
2022/09/04 10:01:32;;;;;;;7.47;2.93;;;;;;;;;;4999189;28;20046;-81
2022/09/04 10:04:39;;;;;;;7.32;2.45;;;;;;;;;;4997621;28;20100;-83
2022/09/04 10:07:13;;;;;;;7.85;2.60;;;;;;;;;;4932609;29;20166;-82
2022/09/04 10:09:39;;;;;;;5.55;2.53;;;;;;;;;;4934173;29;20218;-82
2022/09/04 10:12:29;;;;;;;7.55;2.55;;;;;;;;;;4965949;28;20076;-80
2022/09/04 10:14:56;;;;;;;5.65;2.38;;;;;;;;;;4990721;28;20109;-82
2022/09/04 10:17:41;;;;;;;5.15;2.30;;;;;;;;;;4998262;28;20061;-81
2022/09/04 10:20:16;;;;;;;5.35;2.33;;;;;;;;;;4995966;28;20085;-82
2022/09/04 10:23:03;;;;;;;6.82;2.22;;;;;;;;;;4977042;28;20061;-81
2022/09/04 10:25:38;;;;;;;6.13;2.20;;;;;;;;;;4988854;28;20078;-80
2022/09/04 10:28:24;;;;;;;6.60;2.00;;;;;;;;;;4993833;28;20438;-81
2022/09/04 10:31:09;;;;;;;4.97;2.17;;;;;;;;;;4999303;28;20058;-81
2022/09/04 10:33:55;;;;;;;2.77;2.07;;;;;;;;;;4997891;28;20050;-81
2022/09/04 10:36:39;;;;;;;3.25;2.10;;;;;;;;;;4997711;28;20077;-82
2022/09/04 10:42:04;;;;;;;7.57;2.13;;;;;;;;;;4997519;28;20276;-81
2022/09/04 10:44:33;;;;;;;7.22;2.10;;;;;;;;;;4992474;28;20342;-81
2022/09/04 10:47:03;;;;;;;2.83;2.20;;;;;;;;;;5000959;28;20050;-80
2022/09/04 10:49:30;;;;;;;4.57;2.05;;;;;;;;;;5002450;28;20104;-81
2022/09/04 10:51:57;;;;;;;3.70;1.90;;;;;;;;;;5001998;28;20411;-81
2022/09/04 10:54:37;;;;;;;4.07;2.30;;;;;;;;;;5003167;28;20054;-81
2022/09/04 10:57:12;;;;;;;7.75;2.40;;;;;;;;;;5012834;28;20062;-82
2022/09/04 10:59:38;;;;;;;;;;;;;;;;;;5005154;28;20057;-80
2022/09/04 11:02:11;;;;;;;4.40;2.15;;;;;;;;;;5001805;28;19933;-81
2022/09/04 11:04:53;;;;;;;5.57;2.30;;;;;;;;;;4997136;28;20435;-80
2022/09/04 11:07:29;;;;;;;5.03;2.17;;;;;;;;;;4998345;28;20109;-80
2022/09/04 11:09:55;;;;;;;3.80;2.08;;;;;;;;;;4997476;28;20046;-82
2022/09/04 11:12:25;;;;;;;2.30;2.00;;;;;;;;;;5002939;28;20050;-83
2022/09/04 11:14:57;;;;;;;4.32;2.00;;;;;;;;;;5002620;28;20046;-82
2022/09/04 11:17:29;;;;;;;4.82;2.15;;;;;;;;;;4983588;28;20050;-83
2022/09/04 11:20:14;;;;;;;6.18;2.08;;;;;;;;;;4999983;28;20061;-82
2022/09/04 11:23:04;;;;;;;4.78;2.10;;;;;;;;;;4998817;28;20050;-81
2022/09/04 11:25:43;;;;;;;3.63;1.80;;;;;;;;;;4990888;28;20065;-84
2022/09/04 11:28:12;;;;;;;2.88;1.90;;;;;;;;;;4983986;28;20054;-81
2022/09/04 11:30:47;;;;;;;4.88;1.92;;;;;;;;;;4982972;28;20086;-79
2022/09/04 11:33:36;;;;;;;3.05;1.80;;;;;;;;;;5000317;28;20062;-81
2022/09/04 11:36:04;;;;;;;2.90;1.90;;;;;;;;;;5000558;28;20128;-82
2022/09/04 11:38:49;;;;;;;6.60;2.08;;;;;;;;;;5001288;28;20085;-81
2022/09/04 11:41:35;;;;;;;3.60;2.03;;;;;;;;;;4974352;28;20057;-80
2022/09/04 11:44:01;;;;;;;3.38;1.98;;;;;;;;;;5006166;28;20072;-80
2022/09/04 11:46:46;;;;;;;4.22;2.00;;;;;;;;;;5010583;28;20073;-80
2022/09/04 11:49:37;;;;;;;2.95;1.80;;;;;;;;;;4996873;28;20109;-81
2022/09/04 11:52:30;;;;;;;2.97;1.73;;;;;;;;;;4969845;28;20060;-80
2022/09/04 11:55:03;;;;;;;2.92;1.90;;;;;;;;;;4962356;28;20074;-81
2022/09/04 11:57:53;;;;;;;3.30;1.83;;;;;;;;;;4979601;28;20074;-81
2022/09/04 12:00:19;;;;;;;3.35;1.60;;;;;;;;;;4962814;28;20062;-83
2022/09/04 12:02:56;;;;;;;3.15;1.80;;;;;;;;;;5010639;28;20043;-83
2022/09/04 12:05:44;;;;;;;5.85;2.00;;;;;;;;;;5011131;28;20061;-83
2022/09/04 12:08:10;;;;;;;4.80;1.80;;;;;;;;;;4962037;28;20089;-81
2022/09/04 12:10:42;;;;;;;4.22;1.90;;;;;;;;;;5002980;28;20065;-81
2022/09/04 12:13:31;;;;;;;2.67;1.60;;;;;;;;;;4984095;28;20066;-83
2022/09/04 12:16:07;;;;;;;2.28;1.40;;;;;;;;;;5000189;28;20354;-80
2022/09/04 12:18:44;;;;;;;3.22;2.00;;;;;;;;;;4987443;28;20089;-80
2022/09/04 12:21:11;;;;;;;3.58;1.95;;;;;;;;;;4997499;28;20066;-81
2022/09/04 12:23:47;;;;;;;5.35;1.77;;;;;;;;;;4990536;28;20069;-80
2022/09/04 12:26:28;;;;;;;4.97;1.70;;;;;;;;;;4993519;28;20054;-81
2022/09/04 12:28:58;;;;;;;4.55;2.00;;;;;;;;;;4991662;28;20136;-82
2022/09/04 12:31:42;;;;;;;6.85;1.73;;;;;;;;;;4997575;28;20065;-81
2022/09/04 12:34:32;;;;;;;4.22;1.65;;;;;;;;;;4998740;28;20050;-82
2022/09/04 12:37:15;;;;;;;3.63;1.90;;;;;;;;;;4997981;28;20050;-82
2022/09/04 12:39:41;;;;;;;2.65;1.70;;;;;;;;;;4997273;28;20085;-80
2022/09/04 12:42:25;;;;;;;4.82;1.80;;;;;;;;;;4998159;28;20129;-80
2022/09/04 12:44:54;;;;;;;3.05;1.50;;;;;;;;;;4998581;28;20596;-81
2022/09/04 12:47:24;;;;;;;3.78;1.70;;;;;;;;;;5012801;28;20506;-81
2022/09/04 12:50:02;;;;;;;3.47;1.92;;;;;;;;;;4994210;28;20089;-81
2022/09/04 12:52:32;;;;;;;3.78;1.67;;;;;;;;;;4973749;28;20082;-80
2022/09/04 12:55:02;;;;;;;6.03;1.88;;;;;;;;;;4981928;28;20061;-80
2022/09/04 12:57:44;;;;;;;6.10;1.80;;;;;;;;;;5005035;28;20050;-81
2022/09/04 13:00:16;;;;;;;1.83;1.45;;;;;;;;;;5002644;28;20694;-80
2022/09/04 13:03:03;;;;;;;4.25;1.50;;;;;;;;;;4994303;28;20537;-81
2022/09/04 13:05:38;;;;;;;5.57;1.90;;;;;;;;;;4997321;28;20664;-80
2022/09/04 13:08:25;;;;;;;5.72;2.08;;;;;;;;;;4989642;28;20061;-81
2022/09/04 13:10:53;;;;;;;4.85;1.98;;;;;;;;;;4984860;28;20054;-81
2022/09/04 13:13:32;;;;;;;2.08;1.75;;;;;;;;;;4995158;28;20529;-80
2022/09/04 13:16:22;;;;;;;4.15;1.92;;;;;;;;;;4991512;28;20489;-82
2022/09/04 13:19:01;;;;;;;2.10;1.70;;;;;;;;;;4988425;28;20269;-79
2022/09/04 13:21:32;;;;;;;3.63;1.88;;;;;;;;;;4971635;28;20274;-79
2022/09/04 13:24:06;;;;;;;4.13;1.80;;;;;;;;;;4996000;28;20137;-80
2022/09/04 13:26:35;;;;;;;3.28;1.90;;;;;;;;;;5000441;28;20110;-81
2022/09/04 13:29:01;;;;;;;5.40;1.70;;;;;;;;;;5005746;28;20054;-81
2022/09/04 13:31:42;;;;;;;4.47;1.80;;;;;;;;;;4982723;28;20113;-82
2022/09/04 13:34:15;;;;;;;5.45;1.88;;;;;;;;;;5000274;28;20050;-81
2022/09/04 13:37:05;;;;;;;5.38;1.75;;;;;;;;;;5002625;28;20050;-79
2022/09/04 13:39:43;;;;;;;4.75;1.80;;;;;;;;;;5001714;28;20054;-80
2022/09/04 13:42:12;;;;;;;3.88;2.00;;;;;;;;;;5000603;28;20053;-82
2022/09/04 13:44:53;;;;;;;2.78;1.52;;;;;;;;;;5004110;28;20069;-81
2022/09/04 13:47:21;;;;;;;3.30;1.80;;;;;;;;;;5023828;28;20073;-80
2022/09/04 13:50:07;;;;;;;2.97;1.80;;;;;;;;;;5024082;28;20053;-81
2022/09/04 13:52:33;;;;;;;;;;;;;;;;;;5029524;28;20081;-80
2022/09/04 13:55:02;;;;;;;4.03;1.70;;;;;;;;;;5012560;28;19932;-82
2022/09/04 13:57:32;;;;;;;3.88;1.85;;;;;;;;;;5024314;28;20128;-79
2022/09/04 14:00:02;;;;;;;4.95;1.63;;;;;;;;;;5003947;28;20077;-82
2022/09/04 14:02:30;;;;;;;3.92;1.85;;;;;;;;;;5025537;28;20104;-82
2022/09/04 14:05:17;;;;;;;4.30;2.00;;;;;;;;;;5005754;28;20081;-80
2022/09/04 14:07:45;;;;;;;3.70;2.03;;;;;;;;;;5024483;28;20081;-83
2022/09/04 14:10:25;;;;;;;4.85;1.85;;;;;;;;;;5024730;28;20469;-79
2022/09/04 14:13:04;;;;;;;4.13;2.00;;;;;;;;;;5026212;28;20379;-81
2022/09/04 14:15:45;;;;;;;5.47;2.00;;;;;;;;;;5006945;28;20069;-83
2022/09/04 14:18:21;;;;;;;10.00;1.90;;;;;;;;;;5021179;28;20050;-82
2022/09/04 14:21:05;;;;;;;2.83;2.00;;;;;;;;;;5023770;28;20073;-81
2022/09/04 14:23:33;;;;;;;3.63;2.00;;;;;;;;;;5027374;28;20050;-82
2022/09/04 14:26:11;;;;;;;2.78;2.03;;;;;;;;;;5025717;28;20069;-81
2022/09/04 14:28:45;;;;;;;8.48;2.08;;;;;;;;;;5024589;28;20050;-80
2022/09/04 14:31:16;;;;;;;5.25;1.88;;;;;;;;;;5008973;28;20074;-79
2022/09/04 14:33:55;;;;;;;5.78;2.10;;;;;;;;;;5002650;28;20179;-82
2022/09/04 14:36:26;;;;;;;6.47;2.08;;;;;;;;;;5024216;28;20057;-81
2022/09/04 14:39:13;;;;;;;5.43;2.10;;;;;;;;;;5023816;28;20089;-82
2022/09/04 14:41:41;;;;;;;4.30;2.03;;;;;;;;;;5007704;28;20054;-81
2022/09/04 14:44:25;;;;;;;6.90;1.92;;;;;;;;;;5010104;28;20050;-80
2022/09/04 14:47:06;;;;;;;5.88;1.90;;;;;;;;;;5022091;28;20065;-80
2022/09/04 14:49:39;;;;;;;3.83;1.83;;;;;;;;;;5024505;28;20181;-81
2022/09/04 14:52:26;;;;;;;3.53;1.90;;;;;;;;;;5029125;28;20102;-81
2022/09/04 14:54:54;;;;;;;3.90;2.17;;;;;;;;;;5013358;28;20137;-84
2022/09/04 14:57:29;;;;;;;4.47;2.10;;;;;;;;;;5032843;28;20129;-83
2022/09/04 15:00:00;;;;;;;5.85;2.00;;;;;;;;;;5024515;28;20068;-80
2022/09/04 15:02:32;;;;;;;3.25;2.00;;;;;;;;;;5024276;28;20108;-84
2022/09/04 15:05:02;;;;;;;3.70;1.80;;;;;;;;;;5025187;28;20053;-81
2022/09/04 15:07:47;;;;;;;4.53;2.00;;;;;;;;;;5024886;28;20073;-82
2022/09/04 15:10:23;;;;;;;6.75;3.30;;;;;;;;;;5007713;28;20422;-82
2022/09/04 15:12:57;;;;;;;3.63;2.28;;;;;;;;;;5024788;28;20045;-82
2022/09/04 15:15:50;;;;;;;5.63;2.50;;;;;;;;;;5028062;28;20060;-81
2022/09/04 15:18:23;;;;;;;3.28;2.10;;;;;;;;;;5006665;28;20030;-82
2022/09/04 15:21:02;;;;;;;6.22;2.22;;;;;;;;;;5025211;28;20049;-81
2022/09/04 15:23:49;;;;;;;5.22;2.30;;;;;;;;;;5023867;28;20467;-83
2022/09/04 15:26:25;;;;;;;6.50;2.20;;;;;;;;;;5023956;28;20066;-81
2022/09/04 15:28:54;;;;;;;5.03;1.95;;;;;;;;;;5026983;28;20050;-83
2022/09/04 15:31:32;;;;;;;5.85;2.08;;;;;;;;;;5015620;28;20046;-83
2022/09/04 15:34:00;;;;;;;3.13;2.00;;;;;;;;;;5032495;28;20307;-81
2022/09/04 15:36:27;;;;;;;4.63;2.33;;;;;;;;;;5026999;28;20053;-81
2022/09/04 15:38:55;;;;;;;5.40;2.10;;;;;;;;;;5008054;28;20057;-82
2022/09/04 15:41:22;;;;;;;4.05;2.10;;;;;;;;;;5025237;28;20053;-82